sensor_id;sensor_type;location;lat;lon;timestamp;P1;durP1;ratioP1;P2;durP2;ratioP2
68866;SDS011;56451;44.804;20.476;2022-12-10T00:01:31;12.98;;;4.80;;
68866;SDS011;56451;44.804;20.476;2022-12-10T00:03:58;11.07;;;4.60;;
68866;SDS011;56451;44.804;20.476;2022-12-10T00:06:28;11.60;;;5.45;;
68866;SDS011;56451;44.804;20.476;2022-12-10T00:08:57;14.45;;;5.22;;
68866;SDS011;56451;44.804;20.476;2022-12-10T00:11:24;17.87;;;5.40;;
68866;SDS011;56451;44.804;20.476;2022-12-10T00:13:50;19.42;;;5.55;;
68866;SDS011;56451;44.804;20.476;2022-12-10T00:16:18;15.63;;;5.35;;
68866;SDS011;56451;44.804;20.476;2022-12-10T00:18:46;16.95;;;4.90;;
68866;SDS011;56451;44.804;20.476;2022-12-10T00:21:17;18.83;;;4.53;;
68866;SDS011;56451;44.804;20.476;2022-12-10T00:23:45;17.23;;;4.65;;
68866;SDS011;56451;44.804;20.476;2022-12-10T00:26:12;15.15;;;4.32;;
68866;SDS011;56451;44.804;20.476;2022-12-10T00:28:39;15.77;;;4.53;;
68866;SDS011;56451;44.804;20.476;2022-12-10T00:31:08;15.27;;;4.77;;
68866;SDS011;56451;44.804;20.476;2022-12-10T00:33:36;9.20;;;4.22;;
68866;SDS011;56451;44.804;20.476;2022-12-10T00:36:07;15.82;;;4.85;;
68866;SDS011;56451;44.804;20.476;2022-12-10T00:38:36;11.77;;;4.63;;
68866;SDS011;56451;44.804;20.476;2022-12-10T00:41:02;13.73;;;4.45;;
68866;SDS011;56451;44.804;20.476;2022-12-10T00:43:29;11.80;;;4.70;;
68866;SDS011;56451;44.804;20.476;2022-12-10T00:45:55;15.18;;;5.50;;
68866;SDS011;56451;44.804;20.476;2022-12-10T00:48:21;12.13;;;4.72;;
68866;SDS011;56451;44.804;20.476;2022-12-10T00:50:58;9.88;;;4.88;;
68866;SDS011;56451;44.804;20.476;2022-12-10T00:53:29;18.80;;;4.30;;
68866;SDS011;56451;44.804;20.476;2022-12-10T00:55:57;10.03;;;4.73;;
68866;SDS011;56451;44.804;20.476;2022-12-10T00:58:25;13.45;;;4.53;;
68866;SDS011;56451;44.804;20.476;2022-12-10T01:00:52;16.05;;;4.65;;
68866;SDS011;56451;44.804;20.476;2022-12-10T01:03:18;12.40;;;4.17;;
68866;SDS011;56451;44.804;20.476;2022-12-10T01:05:44;10.93;;;4.27;;
68866;SDS011;56451;44.804;20.476;2022-12-10T01:08:10;11.38;;;3.97;;
68866;SDS011;56451;44.804;20.476;2022-12-10T01:10:36;11.45;;;4.28;;
68866;SDS011;56451;44.804;20.476;2022-12-10T01:13:03;14.32;;;4.50;;
68866;SDS011;56451;44.804;20.476;2022-12-10T01:15:29;14.57;;;4.33;;
68866;SDS011;56451;44.804;20.476;2022-12-10T01:17:56;8.55;;;3.83;;
68866;SDS011;56451;44.804;20.476;2022-12-10T01:20:22;15.15;;;5.07;;
68866;SDS011;56451;44.804;20.476;2022-12-10T01:22:47;11.43;;;4.07;;
68866;SDS011;56451;44.804;20.476;2022-12-10T01:25:13;12.18;;;3.88;;
68866;SDS011;56451;44.804;20.476;2022-12-10T01:27:39;13.02;;;4.07;;
68866;SDS011;56451;44.804;20.476;2022-12-10T01:30:06;13.43;;;3.85;;
68866;SDS011;56451;44.804;20.476;2022-12-10T01:32:35;7.82;;;3.67;;
68866;SDS011;56451;44.804;20.476;2022-12-10T01:35:01;9.13;;;3.47;;
68866;SDS011;56451;44.804;20.476;2022-12-10T01:37:27;10.50;;;3.78;;
68866;SDS011;56451;44.804;20.476;2022-12-10T01:39:53;9.43;;;4.10;;
68866;SDS011;56451;44.804;20.476;2022-12-10T01:42:19;10.30;;;3.72;;
68866;SDS011;56451;44.804;20.476;2022-12-10T01:47:14;11.77;;;3.30;;
68866;SDS011;56451;44.804;20.476;2022-12-10T01:49:40;8.17;;;3.40;;
68866;SDS011;56451;44.804;20.476;2022-12-10T01:52:07;7.28;;;2.35;;
68866;SDS011;56451;44.804;20.476;2022-12-10T01:54:37;8.27;;;3.10;;
68866;SDS011;56451;44.804;20.476;2022-12-10T01:57:09;8.32;;;3.28;;
68866;SDS011;56451;44.804;20.476;2022-12-10T01:59:38;11.38;;;2.90;;
68866;SDS011;56451;44.804;20.476;2022-12-10T02:15:42;8.90;;;3.07;;
68866;SDS011;56451;44.804;20.476;2022-12-10T02:21:06;9.75;;;2.28;;
68866;SDS011;56451;44.804;20.476;2022-12-10T02:23:38;5.93;;;2.88;;
68866;SDS011;56451;44.804;20.476;2022-12-10T02:26:12;8.55;;;2.50;;
68866;SDS011;56451;44.804;20.476;2022-12-10T02:31:52;8.35;;;2.42;;
68866;SDS011;56451;44.804;20.476;2022-12-10T02:34:23;11.65;;;2.92;;
68866;SDS011;56451;44.804;20.476;2022-12-10T02:36:51;8.95;;;2.70;;
68866;SDS011;56451;44.804;20.476;2022-12-10T02:39:22;8.93;;;2.50;;
68866;SDS011;56451;44.804;20.476;2022-12-10T02:41:55;8.93;;;2.70;;
68866;SDS011;56451;44.804;20.476;2022-12-10T02:44:24;11.07;;;2.83;;
68866;SDS011;56451;44.804;20.476;2022-12-10T02:46:55;8.63;;;2.58;;
68866;SDS011;56451;44.804;20.476;2022-12-10T02:49:29;9.52;;;2.95;;
68866;SDS011;56451;44.804;20.476;2022-12-10T02:51:59;11.02;;;2.67;;
68866;SDS011;56451;44.804;20.476;2022-12-10T02:54:41;11.43;;;2.83;;
68866;SDS011;56451;44.804;20.476;2022-12-10T03:16:09;5.28;;;2.20;;
68866;SDS011;56451;44.804;20.476;2022-12-10T03:18:36;8.48;;;3.08;;
68866;SDS011;56451;44.804;20.476;2022-12-10T03:21:04;9.40;;;2.70;;
68866;SDS011;56451;44.804;20.476;2022-12-10T03:23:32;7.68;;;2.33;;
68866;SDS011;56451;44.804;20.476;2022-12-10T03:26:01;9.27;;;2.10;;
68866;SDS011;56451;44.804;20.476;2022-12-10T03:28:28;9.65;;;2.28;;
68866;SDS011;56451;44.804;20.476;2022-12-10T03:30:57;10.82;;;2.42;;
68866;SDS011;56451;44.804;20.476;2022-12-10T03:33:23;12.30;;;2.30;;
68866;SDS011;56451;44.804;20.476;2022-12-10T03:35:49;8.63;;;2.38;;
68866;SDS011;56451;44.804;20.476;2022-12-10T03:38:15;8.85;;;2.20;;
68866;SDS011;56451;44.804;20.476;2022-12-10T03:40:42;6.47;;;2.17;;
68866;SDS011;56451;44.804;20.476;2022-12-10T03:43:08;5.73;;;2.23;;
68866;SDS011;56451;44.804;20.476;2022-12-10T03:45:34;9.07;;;2.08;;
68866;SDS011;56451;44.804;20.476;2022-12-10T03:48:00;10.35;;;1.90;;
68866;SDS011;56451;44.804;20.476;2022-12-10T03:50:25;9.63;;;2.23;;
68866;SDS011;56451;44.804;20.476;2022-12-10T03:52:51;6.30;;;2.40;;
68866;SDS011;56451;44.804;20.476;2022-12-10T03:55:17;6.70;;;2.07;;
68866;SDS011;56451;44.804;20.476;2022-12-10T03:57:43;5.93;;;2.30;;
68866;SDS011;56451;44.804;20.476;2022-12-10T04:00:09;9.68;;;2.20;;
68866;SDS011;56451;44.804;20.476;2022-12-10T04:02:38;6.43;;;1.70;;
68866;SDS011;56451;44.804;20.476;2022-12-10T04:05:04;9.68;;;2.10;;
68866;SDS011;56451;44.804;20.476;2022-12-10T04:07:32;7.38;;;2.33;;
68866;SDS011;56451;44.804;20.476;2022-12-10T04:09:58;5.90;;;2.03;;
68866;SDS011;56451;44.804;20.476;2022-12-10T04:12:23;11.63;;;2.60;;
68866;SDS011;56451;44.804;20.476;2022-12-10T04:14:49;7.50;;;1.98;;
68866;SDS011;56451;44.804;20.476;2022-12-10T04:17:34;8.80;;;2.08;;
68866;SDS011;56451;44.804;20.476;2022-12-10T04:20:00;8.27;;;2.55;;
68866;SDS011;56451;44.804;20.476;2022-12-10T04:22:26;5.20;;;2.07;;
68866;SDS011;56451;44.804;20.476;2022-12-10T04:25:10;8.48;;;1.73;;
68866;SDS011;56451;44.804;20.476;2022-12-10T04:27:57;7.25;;;2.08;;
68866;SDS011;56451;44.804;20.476;2022-12-10T04:30:23;7.30;;;2.10;;
68866;SDS011;56451;44.804;20.476;2022-12-10T04:32:49;8.88;;;2.13;;
68866;SDS011;56451;44.804;20.476;2022-12-10T04:35:14;6.07;;;2.37;;
68866;SDS011;56451;44.804;20.476;2022-12-10T04:37:40;6.47;;;2.03;;
68866;SDS011;56451;44.804;20.476;2022-12-10T04:40:06;6.80;;;2.25;;
68866;SDS011;56451;44.804;20.476;2022-12-10T04:42:33;8.07;;;2.00;;
68866;SDS011;56451;44.804;20.476;2022-12-10T04:44:59;9.18;;;2.00;;
68866;SDS011;56451;44.804;20.476;2022-12-10T04:47:25;6.15;;;1.88;;
68866;SDS011;56451;44.804;20.476;2022-12-10T04:49:50;10.13;;;2.60;;
68866;SDS011;56451;44.804;20.476;2022-12-10T04:52:16;6.35;;;2.17;;
68866;SDS011;56451;44.804;20.476;2022-12-10T04:54:43;9.38;;;2.67;;
68866;SDS011;56451;44.804;20.476;2022-12-10T04:57:09;6.40;;;1.95;;
68866;SDS011;56451;44.804;20.476;2022-12-10T04:59:36;6.03;;;1.73;;
68866;SDS011;56451;44.804;20.476;2022-12-10T05:02:03;7.57;;;1.80;;
68866;SDS011;56451;44.804;20.476;2022-12-10T05:04:29;10.00;;;2.25;;
68866;SDS011;56451;44.804;20.476;2022-12-10T05:06:55;7.75;;;2.15;;
68866;SDS011;56451;44.804;20.476;2022-12-10T05:09:21;5.17;;;1.90;;
68866;SDS011;56451;44.804;20.476;2022-12-10T05:11:48;8.57;;;2.00;;
68866;SDS011;56451;44.804;20.476;2022-12-10T05:14:14;7.55;;;2.35;;
68866;SDS011;56451;44.804;20.476;2022-12-10T05:16:41;4.95;;;1.63;;
68866;SDS011;56451;44.804;20.476;2022-12-10T05:19:08;7.93;;;2.13;;
68866;SDS011;56451;44.804;20.476;2022-12-10T05:21:34;6.47;;;2.08;;
68866;SDS011;56451;44.804;20.476;2022-12-10T05:24:18;7.15;;;2.08;;
68866;SDS011;56451;44.804;20.476;2022-12-10T05:26:44;7.68;;;1.83;;
68866;SDS011;56451;44.804;20.476;2022-12-10T05:29:11;8.35;;;2.50;;
68866;SDS011;56451;44.804;20.476;2022-12-10T05:31:37;9.60;;;3.80;;
68866;SDS011;56451;44.804;20.476;2022-12-10T05:34:03;8.82;;;1.90;;
68866;SDS011;56451;44.804;20.476;2022-12-10T05:36:30;6.72;;;2.53;;
68866;SDS011;56451;44.804;20.476;2022-12-10T05:38:56;9.90;;;2.08;;
68866;SDS011;56451;44.804;20.476;2022-12-10T05:41:26;7.70;;;2.27;;
68866;SDS011;56451;44.804;20.476;2022-12-10T05:43:55;6.95;;;2.35;;
68866;SDS011;56451;44.804;20.476;2022-12-10T05:46:24;8.88;;;2.38;;
68866;SDS011;56451;44.804;20.476;2022-12-10T05:48:51;9.70;;;2.35;;
68866;SDS011;56451;44.804;20.476;2022-12-10T05:51:18;5.82;;;2.30;;
68866;SDS011;56451;44.804;20.476;2022-12-10T05:53:47;9.87;;;2.20;;
68866;SDS011;56451;44.804;20.476;2022-12-10T05:56:15;4.75;;;1.77;;
68866;SDS011;56451;44.804;20.476;2022-12-10T05:58:44;10.90;;;1.95;;
68866;SDS011;56451;44.804;20.476;2022-12-10T06:01:13;6.97;;;2.05;;
68866;SDS011;56451;44.804;20.476;2022-12-10T06:03:44;7.32;;;2.20;;
68866;SDS011;56451;44.804;20.476;2022-12-10T06:06:10;10.00;;;2.53;;
68866;SDS011;56451;44.804;20.476;2022-12-10T06:08:37;9.18;;;2.15;;
68866;SDS011;56451;44.804;20.476;2022-12-10T06:11:09;9.90;;;2.45;;
68866;SDS011;56451;44.804;20.476;2022-12-10T06:13:36;7.05;;;2.50;;
68866;SDS011;56451;44.804;20.476;2022-12-10T06:16:06;5.55;;;1.90;;
68866;SDS011;56451;44.804;20.476;2022-12-10T06:18:33;6.77;;;2.00;;
68866;SDS011;56451;44.804;20.476;2022-12-10T06:21:02;10.50;;;2.13;;
68866;SDS011;56451;44.804;20.476;2022-12-10T06:23:29;8.98;;;2.30;;
68866;SDS011;56451;44.804;20.476;2022-12-10T06:25:54;7.80;;;1.87;;
68866;SDS011;56451;44.804;20.476;2022-12-10T06:28:20;8.80;;;2.70;;
68866;SDS011;56451;44.804;20.476;2022-12-10T06:30:46;6.05;;;2.00;;
68866;SDS011;56451;44.804;20.476;2022-12-10T06:33:12;8.77;;;2.43;;
68866;SDS011;56451;44.804;20.476;2022-12-10T06:35:37;6.88;;;2.13;;
68866;SDS011;56451;44.804;20.476;2022-12-10T06:38:03;7.97;;;2.13;;
68866;SDS011;56451;44.804;20.476;2022-12-10T06:40:29;6.38;;;1.95;;
68866;SDS011;56451;44.804;20.476;2022-12-10T06:42:55;7.18;;;2.17;;
68866;SDS011;56451;44.804;20.476;2022-12-10T06:45:21;5.50;;;2.07;;
68866;SDS011;56451;44.804;20.476;2022-12-10T06:47:47;7.22;;;2.10;;
68866;SDS011;56451;44.804;20.476;2022-12-10T06:50:13;5.82;;;1.92;;
68866;SDS011;56451;44.804;20.476;2022-12-10T06:52:38;8.63;;;2.40;;
68866;SDS011;56451;44.804;20.476;2022-12-10T06:55:04;9.68;;;2.17;;
68866;SDS011;56451;44.804;20.476;2022-12-10T06:57:30;8.30;;;2.30;;
68866;SDS011;56451;44.804;20.476;2022-12-10T06:59:56;15.57;;;2.80;;
68866;SDS011;56451;44.804;20.476;2022-12-10T07:02:22;8.75;;;3.00;;
68866;SDS011;56451;44.804;20.476;2022-12-10T07:04:48;6.90;;;2.83;;
68866;SDS011;56451;44.804;20.476;2022-12-10T07:07:13;6.93;;;2.40;;
68866;SDS011;56451;44.804;20.476;2022-12-10T07:09:39;10.57;;;2.67;;
68866;SDS011;56451;44.804;20.476;2022-12-10T07:12:05;11.97;;;3.23;;
68866;SDS011;56451;44.804;20.476;2022-12-10T07:14:31;10.35;;;3.30;;
68866;SDS011;56451;44.804;20.476;2022-12-10T07:16:57;8.32;;;3.28;;
68866;SDS011;56451;44.804;20.476;2022-12-10T07:19:24;12.77;;;3.50;;
68866;SDS011;56451;44.804;20.476;2022-12-10T07:21:49;8.88;;;3.00;;
68866;SDS011;56451;44.804;20.476;2022-12-10T07:24:17;10.93;;;3.33;;
68866;SDS011;56451;44.804;20.476;2022-12-10T07:26:44;9.65;;;2.88;;
68866;SDS011;56451;44.804;20.476;2022-12-10T07:29:12;6.88;;;3.42;;
68866;SDS011;56451;44.804;20.476;2022-12-10T07:31:40;8.83;;;3.00;;
68866;SDS011;56451;44.804;20.476;2022-12-10T07:34:06;8.98;;;3.08;;
68866;SDS011;56451;44.804;20.476;2022-12-10T07:36:32;9.80;;;2.92;;
68866;SDS011;56451;44.804;20.476;2022-12-10T07:38:58;8.50;;;2.85;;
68866;SDS011;56451;44.804;20.476;2022-12-10T07:41:24;6.13;;;2.80;;
68866;SDS011;56451;44.804;20.476;2022-12-10T07:43:51;7.47;;;2.78;;
68866;SDS011;56451;44.804;20.476;2022-12-10T07:46:18;9.05;;;3.08;;
68866;SDS011;56451;44.804;20.476;2022-12-10T07:48:54;10.35;;;2.92;;
68866;SDS011;56451;44.804;20.476;2022-12-10T07:51:21;7.38;;;4.13;;
68866;SDS011;56451;44.804;20.476;2022-12-10T07:53:50;9.93;;;3.03;;
68866;SDS011;56451;44.804;20.476;2022-12-10T07:56:17;10.95;;;3.40;;
68866;SDS011;56451;44.804;20.476;2022-12-10T07:58:43;8.32;;;4.30;;
68866;SDS011;56451;44.804;20.476;2022-12-10T08:01:14;14.40;;;4.85;;
68866;SDS011;56451;44.804;20.476;2022-12-10T08:03:41;11.52;;;4.85;;
68866;SDS011;56451;44.804;20.476;2022-12-10T08:06:09;8.07;;;3.63;;
68866;SDS011;56451;44.804;20.476;2022-12-10T08:08:37;12.93;;;3.78;;
68866;SDS011;56451;44.804;20.476;2022-12-10T08:11:04;13.65;;;3.88;;
68866;SDS011;56451;44.804;20.476;2022-12-10T08:13:31;11.15;;;4.55;;
68866;SDS011;56451;44.804;20.476;2022-12-10T08:16:01;7.63;;;3.75;;
68866;SDS011;56451;44.804;20.476;2022-12-10T08:18:35;7.73;;;3.93;;
68866;SDS011;56451;44.804;20.476;2022-12-10T08:21:09;8.48;;;3.47;;
68866;SDS011;56451;44.804;20.476;2022-12-10T08:23:42;9.73;;;3.65;;
68866;SDS011;56451;44.804;20.476;2022-12-10T08:26:10;6.97;;;3.97;;
68866;SDS011;56451;44.804;20.476;2022-12-10T08:28:38;8.85;;;3.72;;
68866;SDS011;56451;44.804;20.476;2022-12-10T08:31:04;9.37;;;3.60;;
68866;SDS011;56451;44.804;20.476;2022-12-10T08:33:33;7.78;;;3.80;;
68866;SDS011;56451;44.804;20.476;2022-12-10T08:36:03;10.57;;;4.25;;
68866;SDS011;56451;44.804;20.476;2022-12-10T08:38:31;9.20;;;4.22;;
68866;SDS011;56451;44.804;20.476;2022-12-10T08:40:57;8.13;;;3.60;;
68866;SDS011;56451;44.804;20.476;2022-12-10T08:43:23;11.07;;;3.90;;
68866;SDS011;56451;44.804;20.476;2022-12-10T08:45:49;12.15;;;4.13;;
68866;SDS011;56451;44.804;20.476;2022-12-10T08:48:15;9.50;;;3.75;;
68866;SDS011;56451;44.804;20.476;2022-12-10T08:50:41;10.73;;;4.50;;
68866;SDS011;56451;44.804;20.476;2022-12-10T08:53:07;9.82;;;4.40;;
68866;SDS011;56451;44.804;20.476;2022-12-10T08:55:33;9.90;;;4.03;;
68866;SDS011;56451;44.804;20.476;2022-12-10T08:58:03;14.07;;;4.38;;
68866;SDS011;56451;44.804;20.476;2022-12-10T09:00:28;7.77;;;3.63;;
68866;SDS011;56451;44.804;20.476;2022-12-10T09:02:54;13.40;;;4.40;;
68866;SDS011;56451;44.804;20.476;2022-12-10T09:05:20;9.35;;;4.07;;
68866;SDS011;56451;44.804;20.476;2022-12-10T09:07:46;8.43;;;3.53;;
68866;SDS011;56451;44.804;20.476;2022-12-10T09:10:12;15.10;;;5.43;;
68866;SDS011;56451;44.804;20.476;2022-12-10T09:12:38;12.43;;;5.20;;
68866;SDS011;56451;44.804;20.476;2022-12-10T09:15:05;13.67;;;6.20;;
68866;SDS011;56451;44.804;20.476;2022-12-10T09:17:34;19.25;;;6.47;;
68866;SDS011;56451;44.804;20.476;2022-12-10T09:20:01;14.27;;;7.13;;
68866;SDS011;56451;44.804;20.476;2022-12-10T09:22:27;18.52;;;6.78;;
68866;SDS011;56451;44.804;20.476;2022-12-10T09:24:54;18.17;;;6.63;;
68866;SDS011;56451;44.804;20.476;2022-12-10T09:27:20;10.75;;;5.78;;
68866;SDS011;56451;44.804;20.476;2022-12-10T09:29:47;16.35;;;6.60;;
68866;SDS011;56451;44.804;20.476;2022-12-10T09:32:13;13.57;;;5.90;;
68866;SDS011;56451;44.804;20.476;2022-12-10T09:34:39;11.50;;;5.80;;
68866;SDS011;56451;44.804;20.476;2022-12-10T09:37:05;7.72;;;4.10;;
68866;SDS011;56451;44.804;20.476;2022-12-10T09:39:31;11.90;;;4.75;;
68866;SDS011;56451;44.804;20.476;2022-12-10T09:42:10;11.77;;;4.37;;
68866;SDS011;56451;44.804;20.476;2022-12-10T09:53:01;9.48;;;3.75;;
68866;SDS011;56451;44.804;20.476;2022-12-10T09:58:04;10.45;;;4.07;;
68866;SDS011;56451;44.804;20.476;2022-12-10T10:03:04;14.95;;;4.32;;
68866;SDS011;56451;44.804;20.476;2022-12-10T10:05:35;12.43;;;5.07;;
68866;SDS011;56451;44.804;20.476;2022-12-10T10:08:06;13.90;;;5.67;;
68866;SDS011;56451;44.804;20.476;2022-12-10T10:10:42;12.48;;;5.05;;
68866;SDS011;56451;44.804;20.476;2022-12-10T10:13:11;12.05;;;4.97;;
68866;SDS011;56451;44.804;20.476;2022-12-10T10:15:44;7.70;;;4.28;;
68866;SDS011;56451;44.804;20.476;2022-12-10T10:18:13;9.43;;;4.70;;
68866;SDS011;56451;44.804;20.476;2022-12-10T10:20:47;14.60;;;5.17;;
68866;SDS011;56451;44.804;20.476;2022-12-10T10:23:15;10.88;;;5.70;;
68866;SDS011;56451;44.804;20.476;2022-12-10T10:25:41;12.85;;;5.20;;
68866;SDS011;56451;44.804;20.476;2022-12-10T10:28:10;11.50;;;5.32;;
68866;SDS011;56451;44.804;20.476;2022-12-10T10:30:38;14.55;;;5.00;;
68866;SDS011;56451;44.804;20.476;2022-12-10T10:33:10;10.47;;;6.20;;
68866;SDS011;56451;44.804;20.476;2022-12-10T10:35:42;15.40;;;6.80;;
68866;SDS011;56451;44.804;20.476;2022-12-10T10:38:15;13.48;;;6.75;;
68866;SDS011;56451;44.804;20.476;2022-12-10T10:40:53;14.68;;;7.25;;
68866;SDS011;56451;44.804;20.476;2022-12-10T10:43:27;12.55;;;6.63;;
68866;SDS011;56451;44.804;20.476;2022-12-10T10:46:00;12.07;;;6.17;;
68866;SDS011;56451;44.804;20.476;2022-12-10T10:48:28;16.80;;;6.60;;
68866;SDS011;56451;44.804;20.476;2022-12-10T10:50:55;16.45;;;7.07;;
68866;SDS011;56451;44.804;20.476;2022-12-10T10:53:39;19.50;;;7.20;;
68866;SDS011;56451;44.804;20.476;2022-12-10T10:58:51;13.27;;;7.77;;
68866;SDS011;56451;44.804;20.476;2022-12-10T11:04:16;18.98;;;8.38;;
68866;SDS011;56451;44.804;20.476;2022-12-10T11:07:04;13.55;;;6.95;;
68866;SDS011;56451;44.804;20.476;2022-12-10T11:09:38;17.45;;;7.50;;
68866;SDS011;56451;44.804;20.476;2022-12-10T11:12:05;18.43;;;7.57;;
68866;SDS011;56451;44.804;20.476;2022-12-10T11:14:45;16.05;;;7.15;;
68866;SDS011;56451;44.804;20.476;2022-12-10T11:19:44;15.02;;;5.43;;
68866;SDS011;56451;44.804;20.476;2022-12-10T11:22:23;13.57;;;4.63;;
68866;SDS011;56451;44.804;20.476;2022-12-10T11:24:51;8.55;;;3.72;;
68866;SDS011;56451;44.804;20.476;2022-12-10T11:27:30;12.50;;;4.25;;
68866;SDS011;56451;44.804;20.476;2022-12-10T11:35:33;10.87;;;3.80;;
68866;SDS011;56451;44.804;20.476;2022-12-10T11:38:28;10.32;;;4.50;;
68866;SDS011;56451;44.804;20.476;2022-12-10T11:41:01;12.80;;;4.72;;
68866;SDS011;56451;44.804;20.476;2022-12-10T11:43:42;9.10;;;4.45;;
68866;SDS011;56451;44.804;20.476;2022-12-10T11:46:25;12.60;;;4.30;;
68866;SDS011;56451;44.804;20.476;2022-12-10T12:03:12;14.47;;;5.03;;
68866;SDS011;56451;44.804;20.476;2022-12-10T12:08:53;11.77;;;4.28;;
68866;SDS011;56451;44.804;20.476;2022-12-10T12:14:26;10.43;;;4.78;;
68866;SDS011;56451;44.804;20.476;2022-12-10T12:17:02;14.80;;;4.63;;
68866;SDS011;56451;44.804;20.476;2022-12-10T12:19:33;14.65;;;5.35;;
68866;SDS011;56451;44.804;20.476;2022-12-10T12:22:13;8.63;;;4.60;;
68866;SDS011;56451;44.804;20.476;2022-12-10T12:24:46;12.82;;;4.80;;
68866;SDS011;56451;44.804;20.476;2022-12-10T12:35:17;13.07;;;5.07;;
68866;SDS011;56451;44.804;20.476;2022-12-10T12:37:54;14.82;;;4.60;;
68866;SDS011;56451;44.804;20.476;2022-12-10T12:48:18;11.90;;;4.72;;
68866;SDS011;56451;44.804;20.476;2022-12-10T12:53:41;12.85;;;4.57;;
68866;SDS011;56451;44.804;20.476;2022-12-10T12:56:21;11.03;;;4.27;;
68866;SDS011;56451;44.804;20.476;2022-12-10T13:01:49;10.02;;;4.50;;
68866;SDS011;56451;44.804;20.476;2022-12-10T13:04:22;13.48;;;5.07;;
68866;SDS011;56451;44.804;20.476;2022-12-10T13:17:28;8.93;;;4.45;;
68866;SDS011;56451;44.804;20.476;2022-12-10T13:22:59;8.97;;;4.37;;
68866;SDS011;56451;44.804;20.476;2022-12-10T13:28:19;12.18;;;4.93;;
68866;SDS011;56451;44.804;20.476;2022-12-10T13:31:16;9.80;;;3.92;;
68866;SDS011;56451;44.804;20.476;2022-12-10T13:41:29;11.82;;;4.30;;
68866;SDS011;56451;44.804;20.476;2022-12-10T13:44:24;8.60;;;4.15;;
68866;SDS011;56451;44.804;20.476;2022-12-10T13:49:58;8.63;;;4.37;;
68866;SDS011;56451;44.804;20.476;2022-12-10T13:52:29;14.57;;;5.47;;
68866;SDS011;56451;44.804;20.476;2022-12-10T14:06:13;11.75;;;4.18;;
68866;SDS011;56451;44.804;20.476;2022-12-10T14:08:46;14.05;;;5.20;;
68866;SDS011;56451;44.804;20.476;2022-12-10T14:11:20;13.05;;;5.03;;
68866;SDS011;56451;44.804;20.476;2022-12-10T14:13:51;9.13;;;4.28;;
68866;SDS011;56451;44.804;20.476;2022-12-10T14:16:21;10.70;;;4.63;;
68866;SDS011;56451;44.804;20.476;2022-12-10T14:18:59;11.27;;;5.05;;
68866;SDS011;56451;44.804;20.476;2022-12-10T14:21:30;11.50;;;4.95;;
68866;SDS011;56451;44.804;20.476;2022-12-10T14:23:58;11.65;;;5.00;;
68866;SDS011;56451;44.804;20.476;2022-12-10T14:26:31;14.23;;;5.03;;
68866;SDS011;56451;44.804;20.476;2022-12-10T14:29:00;12.93;;;4.63;;
68866;SDS011;56451;44.804;20.476;2022-12-10T14:31:30;15.93;;;4.75;;
68866;SDS011;56451;44.804;20.476;2022-12-10T14:34:00;14.63;;;5.30;;
68866;SDS011;56451;44.804;20.476;2022-12-10T14:36:30;13.50;;;4.75;;
68866;SDS011;56451;44.804;20.476;2022-12-10T14:38:59;12.15;;;4.85;;
68866;SDS011;56451;44.804;20.476;2022-12-10T14:41:26;15.40;;;5.30;;
68866;SDS011;56451;44.804;20.476;2022-12-10T14:43:55;8.98;;;5.28;;
68866;SDS011;56451;44.804;20.476;2022-12-10T14:46:27;11.25;;;4.72;;
68866;SDS011;56451;44.804;20.476;2022-12-10T14:48:55;16.25;;;5.85;;
68866;SDS011;56451;44.804;20.476;2022-12-10T14:51:22;16.67;;;5.83;;
68866;SDS011;56451;44.804;20.476;2022-12-10T14:53:51;15.63;;;5.43;;
68866;SDS011;56451;44.804;20.476;2022-12-10T14:56:51;21.38;;;5.55;;
68866;SDS011;56451;44.804;20.476;2022-12-10T14:59:14;16.52;;;5.65;;
68866;SDS011;56451;44.804;20.476;2022-12-10T15:01:46;20.58;;;5.68;;
68866;SDS011;56451;44.804;20.476;2022-12-10T15:04:17;11.30;;;4.77;;
68866;SDS011;56451;44.804;20.476;2022-12-10T15:06:44;16.83;;;5.68;;
68866;SDS011;56451;44.804;20.476;2022-12-10T15:09:22;16.05;;;5.47;;
68866;SDS011;56451;44.804;20.476;2022-12-10T15:11:54;15.85;;;5.82;;
68866;SDS011;56451;44.804;20.476;2022-12-10T15:14:24;15.23;;;4.72;;
68866;SDS011;56451;44.804;20.476;2022-12-10T15:16:53;15.03;;;5.20;;
68866;SDS011;56451;44.804;20.476;2022-12-10T15:21:50;15.25;;;6.20;;
68866;SDS011;56451;44.804;20.476;2022-12-10T15:24:27;15.20;;;5.75;;
68866;SDS011;56451;44.804;20.476;2022-12-10T15:27:01;17.02;;;6.32;;
68866;SDS011;56451;44.804;20.476;2022-12-10T15:31:54;12.05;;;4.88;;
68866;SDS011;56451;44.804;20.476;2022-12-10T15:34:25;16.83;;;5.35;;
68866;SDS011;56451;44.804;20.476;2022-12-10T15:36:52;17.42;;;5.85;;
68866;SDS011;56451;44.804;20.476;2022-12-10T15:39:43;18.00;;;5.80;;
68866;SDS011;56451;44.804;20.476;2022-12-10T15:42:24;14.38;;;5.70;;
68866;SDS011;56451;44.804;20.476;2022-12-10T15:47:49;11.52;;;5.57;;
68866;SDS011;56451;44.804;20.476;2022-12-10T15:50:15;15.10;;;5.72;;
68866;SDS011;56451;44.804;20.476;2022-12-10T15:52:41;13.97;;;5.13;;
68866;SDS011;56451;44.804;20.476;2022-12-10T15:55:09;16.95;;;5.80;;
68866;SDS011;56451;44.804;20.476;2022-12-10T15:57:37;16.42;;;5.47;;
68866;SDS011;56451;44.804;20.476;2022-12-10T16:00:16;15.30;;;5.88;;
68866;SDS011;56451;44.804;20.476;2022-12-10T16:02:57;21.50;;;6.07;;
68866;SDS011;56451;44.804;20.476;2022-12-10T16:05:28;21.70;;;6.57;;
68866;SDS011;56451;44.804;20.476;2022-12-10T16:07:59;20.90;;;6.30;;
68866;SDS011;56451;44.804;20.476;2022-12-10T16:10:29;19.50;;;6.57;;
68866;SDS011;56451;44.804;20.476;2022-12-10T16:13:02;21.13;;;6.20;;
68866;SDS011;56451;44.804;20.476;2022-12-10T16:15:31;20.58;;;5.88;;
68866;SDS011;56451;44.804;20.476;2022-12-10T16:18:03;16.83;;;6.63;;
68866;SDS011;56451;44.804;20.476;2022-12-10T16:20:30;18.95;;;6.40;;
68866;SDS011;56451;44.804;20.476;2022-12-10T16:22:58;20.17;;;6.30;;
68866;SDS011;56451;44.804;20.476;2022-12-10T16:25:26;19.25;;;5.68;;
68866;SDS011;56451;44.804;20.476;2022-12-10T16:27:54;20.77;;;5.95;;
68866;SDS011;56451;44.804;20.476;2022-12-10T16:30:21;16.80;;;5.50;;
68866;SDS011;56451;44.804;20.476;2022-12-10T16:32:49;17.15;;;6.13;;
68866;SDS011;56451;44.804;20.476;2022-12-10T16:35:16;15.90;;;6.10;;
68866;SDS011;56451;44.804;20.476;2022-12-10T16:37:43;17.42;;;5.65;;
68866;SDS011;56451;44.804;20.476;2022-12-10T16:40:13;19.63;;;5.50;;
68866;SDS011;56451;44.804;20.476;2022-12-10T16:42:40;11.60;;;5.67;;
68866;SDS011;56451;44.804;20.476;2022-12-10T16:45:14;18.27;;;5.70;;
68866;SDS011;56451;44.804;20.476;2022-12-10T16:47:43;15.40;;;5.38;;
68866;SDS011;56451;44.804;20.476;2022-12-10T16:50:09;15.30;;;6.05;;
68866;SDS011;56451;44.804;20.476;2022-12-10T16:52:36;20.42;;;5.70;;
68866;SDS011;56451;44.804;20.476;2022-12-10T16:55:02;17.87;;;6.03;;
68866;SDS011;56451;44.804;20.476;2022-12-10T16:57:29;17.50;;;5.68;;
68866;SDS011;56451;44.804;20.476;2022-12-10T16:59:55;18.00;;;5.60;;
68866;SDS011;56451;44.804;20.476;2022-12-10T17:02:21;13.80;;;5.43;;
68866;SDS011;56451;44.804;20.476;2022-12-10T17:04:47;13.13;;;5.53;;
68866;SDS011;56451;44.804;20.476;2022-12-10T17:07:13;17.38;;;5.43;;
68866;SDS011;56451;44.804;20.476;2022-12-10T17:09:40;12.60;;;5.30;;
68866;SDS011;56451;44.804;20.476;2022-12-10T17:12:07;15.40;;;4.93;;
68866;SDS011;56451;44.804;20.476;2022-12-10T17:14:41;14.63;;;5.10;;